Time,TemperatureF,DewpointF,PressureIn,WindDirection,WindDirectionDegrees,WindSpeedMPH,WindSpeedGustMPH,Humidity,HourlyPrecipIn,Conditions,Clouds,dailyrainin,SoftwareType,DateUTC
2013-12-18 00:12:00,42.0,40.0,30.28,SW,227,1.0,2.0,92,0.00,,,0.00,,2013-12-18 06:12:00,
2013-12-18 00:22:00,42.0,40.0,30.27,SW,227,1.0,2.0,91,0.00,,,0.00,,2013-12-18 06:22:00,
2013-12-18 00:42:00,41.0,39.0,30.27,SW,227,1.0,2.0,91,0.00,,,0.00,,2013-12-18 06:42:00,
2013-12-18 00:53:00,41.0,39.0,30.27,SW,227,0.0,1.0,92,0.00,,,0.00,,2013-12-18 06:53:00,
2013-12-18 01:12:00,42.0,40.0,30.26,SW,227,0.0,0.0,91,0.00,,,0.00,,2013-12-18 07:12:00,
2013-12-18 01:22:00,42.0,40.0,30.26,SW,227,0.0,1.0,91,0.00,,,0.00,,2013-12-18 07:22:00,
2013-12-18 01:42:00,42.0,39.0,30.26,SW,227,0.0,0.0,90,0.00,,,0.00,,2013-12-18 07:42:00,
2013-12-18 01:52:00,42.0,40.0,30.27,SW,227,0.0,0.0,91,0.00,,,0.00,,2013-12-18 07:52:00,
2013-12-18 02:12:00,41.0,39.0,30.27,SW,227,1.0,2.0,91,0.00,,,0.00,,2013-12-18 08:12:00,
2013-12-18 02:22:00,41.0,39.0,30.27,SW,227,1.0,2.0,92,0.00,,,0.00,,2013-12-18 08:22:00,
2013-12-18 02:42:00,40.0,38.0,30.27,SW,227,0.0,2.0,92,0.00,,,0.00,,2013-12-18 08:42:00,
2013-12-18 02:52:00,40.0,38.0,30.27,SW,227,1.0,2.0,92,0.00,,,0.00,,2013-12-18 08:52:00,
2013-12-18 03:02:00,40.0,38.0,30.27,SW,227,1.0,2.0,92,0.00,,,0.00,,2013-12-18 09:02:00,
2013-12-18 03:11:00,40.0,38.0,30.27,SW,227,1.0,2.0,92,0.00,,,0.00,,2013-12-18 09:11:00,
2013-12-18 03:22:00,40.0,38.0,30.28,SW,227,0.0,2.0,93,0.00,,,0.00,,2013-12-18 09:22:00,
2013-12-18 03:43:00,39.0,37.0,30.28,SW,227,0.0,1.0,93,0.00,,,0.00,,2013-12-18 09:43:00,
2013-12-18 03:53:00,39.0,37.0,30.28,NNE,26,2.0,6.0,94,0.00,,,0.00,,2013-12-18 09:53:00,
2013-12-18 04:13:00,39.0,37.0,30.28,NNE,26,0.0,3.0,94,0.00,,,0.00,,2013-12-18 10:13:00,
2013-12-18 04:23:00,39.0,37.0,30.28,NNE,26,2.0,3.0,94,0.00,,,0.00,,2013-12-18 10:23:00,
2013-12-18 04:42:00,39.0,37.0,30.27,NNE,26,0.0,0.0,94,0.00,,,0.00,,2013-12-18 10:42:00,
2013-12-18 04:52:00,39.0,37.0,30.28,NNE,26,0.0,2.0,93,0.00,,,0.00,,2013-12-18 10:52:00,
2013-12-18 05:12:00,38.0,36.0,30.27,NNE,26,0.0,2.0,93,0.00,,,0.00,,2013-12-18 11:12:00,
2013-12-18 05:23:00,38.0,36.0,30.28,NNE,26,0.0,1.0,93,0.00,,,0.00,,2013-12-18 11:23:00,
2013-12-18 05:42:00,37.0,35.0,30.28,NNE,26,0.0,0.0,93,0.00,,,0.00,,2013-12-18 11:42:00,
2013-12-18 05:53:00,38.0,36.0,30.28,NNE,26,0.0,1.0,94,0.00,,,0.00,,2013-12-18 11:53:00,
2013-12-18 06:11:00,38.0,36.0,30.29,NNE,26,0.0,1.0,94,0.00,,,0.00,,2013-12-18 12:11:00,
2013-12-18 06:22:00,38.0,36.0,30.29,NNE,26,1.0,2.0,94,0.00,,,0.00,,2013-12-18 12:22:00,
2013-12-18 06:42:00,37.0,36.0,30.29,NNE,26,2.0,3.0,95,0.00,,,0.00,,2013-12-18 12:42:00,
2013-12-18 06:52:00,37.0,36.0,30.30,NNE,26,2.0,3.0,95,0.00,,,0.00,,2013-12-18 12:52:00,
2013-12-18 07:12:00,37.0,36.0,30.30,NE,44,2.0,4.0,95,0.00,,,0.00,,2013-12-18 13:12:00,
2013-12-18 07:22:00,38.0,37.0,30.31,ENE,57,2.0,3.0,95,0.00,,,0.00,,2013-12-18 13:22:00,
2013-12-18 07:42:00,39.0,37.0,30.31,ENE,57,2.0,4.0,94,0.00,,,0.00,,2013-12-18 13:42:00,
2013-12-18 07:52:00,39.0,37.0,30.31,ENE,60,1.0,3.0,94,0.00,,,0.00,,2013-12-18 13:52:00,
2013-12-18 08:11:00,40.0,38.0,30.31,ENE,74,0.0,2.0,93,0.00,,,0.00,,2013-12-18 14:11:00,
2013-12-18 08:22:00,40.0,38.0,30.31,East,99,1.0,5.0,93,0.00,,,0.00,,2013-12-18 14:22:00,
2013-12-18 08:42:00,41.0,39.0,30.32,ESE,119,0.0,4.0,92,0.00,,,0.00,,2013-12-18 14:42:00,
2013-12-18 08:52:00,42.0,40.0,30.32,ESE,119,0.0,2.0,91,0.00,,,0.00,,2013-12-18 14:52:00,
2013-12-18 09:11:00,44.0,41.0,30.33,SE,130,2.0,4.0,90,0.00,,,0.00,,2013-12-18 15:11:00,
2013-12-18 09:22:00,45.0,42.0,30.34,SE,139,2.0,5.0,89,0.00,,,0.00,,2013-12-18 15:22:00,
2013-12-18 09:44:00,46.0,42.0,30.34,SSE,148,4.0,9.0,86,0.00,,,0.00,,2013-12-18 15:44:00,
2013-12-18 09:53:00,48.0,43.0,30.34,SSE,155,8.0,11.0,82,0.00,,,0.00,,2013-12-18 15:53:00,
2013-12-18 10:13:00,50.0,43.0,30.34,SE,144,7.0,10.0,77,0.00,,,0.00,,2013-12-18 16:13:00,
2013-12-18 10:23:00,51.0,43.0,30.34,SSE,147,7.0,11.0,74,0.00,,,0.00,,2013-12-18 16:23:00,
2013-12-18 10:42:00,52.0,43.0,30.34,ESE,115,9.0,13.0,71,0.00,,,0.00,,2013-12-18 16:42:00,
2013-12-18 10:53:00,53.0,43.0,30.33,ESE,113,8.0,15.0,68,0.00,,,0.00,,2013-12-18 16:53:00,
2013-12-18 11:13:00,54.0,43.0,30.33,SE,140,10.0,16.0,66,0.00,,,0.00,,2013-12-18 17:13:00,
2013-12-18 11:22:00,55.0,44.0,30.33,SSE,163,9.0,13.0,67,0.00,,,0.00,,2013-12-18 17:22:00,
2013-12-18 11:42:00,56.0,45.0,30.32,SE,132,9.0,13.0,66,0.00,,,0.00,,2013-12-18 17:42:00,
2013-12-18 11:52:00,57.0,45.0,30.31,SE,140,7.0,14.0,65,0.00,,,0.00,,2013-12-18 17:52:00,
2013-12-18 12:12:00,58.0,45.0,30.30,SE,146,7.0,11.0,63,0.00,,,0.00,,2013-12-18 18:12:00,
2013-12-18 12:22:00,59.0,47.0,30.29,SSE,157,4.0,10.0,64,0.00,,,0.00,,2013-12-18 18:22:00,
2013-12-18 12:42:00,60.0,47.0,30.29,SSE,164,6.0,10.0,61,0.00,,,0.00,,2013-12-18 18:42:00,
2013-12-18 12:52:00,61.0,47.0,30.28,South,178,6.0,11.0,61,0.00,,,0.00,,2013-12-18 18:52:00,
2013-12-18 13:11:00,62.0,48.0,30.27,SSW,206,5.0,10.0,60,0.00,,,0.00,,2013-12-18 19:11:00,
2013-12-18 13:21:00,62.0,46.0,30.26,SSE,167,6.0,13.0,55,0.00,,,0.00,,2013-12-18 19:21:00,
2013-12-18 13:42:00,63.0,47.0,30.25,SSW,203,6.0,11.0,56,0.00,,,0.00,,2013-12-18 19:42:00,
2013-12-18 13:52:00,64.0,45.0,30.24,SE,135,6.0,11.0,51,0.00,,,0.00,,2013-12-18 19:52:00,
2013-12-18 14:12:00,64.0,45.0,30.23,SSW,202,7.0,11.0,51,0.00,,,0.00,,2013-12-18 20:12:00,
2013-12-18 14:22:00,65.0,47.0,30.22,South,178,6.0,10.0,52,0.00,,,0.00,,2013-12-18 20:22:00,
2013-12-18 14:42:00,65.0,45.0,30.22,South,178,8.0,11.0,48,0.00,,,0.00,,2013-12-18 20:42:00,
2013-12-18 14:52:00,65.0,45.0,30.21,SSE,159,6.0,10.0,49,0.00,,,0.00,,2013-12-18 20:52:00,
2013-12-18 15:11:00,65.0,46.0,30.21,SSE,152,5.0,12.0,50,0.00,,,0.00,,2013-12-18 21:11:00,
2013-12-18 15:22:00,65.0,45.0,30.20,SSE,162,5.0,8.0,49,0.00,,,0.00,,2013-12-18 21:22:00,
2013-12-18 15:43:00,65.0,46.0,30.20,South,185,4.0,10.0,50,0.00,,,0.00,,2013-12-18 21:43:00,
2013-12-18 15:53:00,65.0,45.0,30.19,SW,225,5.0,10.0,49,0.00,,,0.00,,2013-12-18 21:53:00,
2013-12-18 16:12:00,65.0,47.0,30.19,South,174,4.0,7.0,52,0.00,,,0.00,,2013-12-18 22:12:00,
2013-12-18 16:23:00,65.0,47.0,30.19,SSE,165,3.0,6.0,53,0.00,,,0.00,,2013-12-18 22:23:00,
2013-12-18 16:43:00,64.0,47.0,30.19,South,173,5.0,9.0,54,0.00,,,0.00,,2013-12-18 22:43:00,
2013-12-18 16:52:00,63.0,48.0,30.19,SE,135,6.0,9.0,58,0.00,,,0.00,,2013-12-18 22:52:00,
2013-12-18 17:12:00,62.0,48.0,30.19,SE,139,6.0,9.0,60,0.00,,,0.00,,2013-12-18 23:12:00,
2013-12-18 17:22:00,61.0,48.0,30.18,SSE,157,6.0,9.0,62,0.00,,,0.00,,2013-12-18 23:22:00,
2013-12-18 17:42:00,60.0,47.0,30.18,SSE,148,5.0,8.0,63,0.00,,,0.00,,2013-12-18 23:42:00,
2013-12-18 17:53:00,58.0,47.0,30.18,SSE,155,3.0,7.0,66,0.00,,,0.00,,2013-12-18 23:53:00,
2013-12-18 18:11:00,56.0,46.0,30.17,SSE,155,3.0,5.0,68,0.00,,,0.00,,2013-12-19 00:11:00,
2013-12-18 18:22:00,56.0,46.0,30.18,SSE,159,2.0,5.0,68,0.00,,,0.00,,2013-12-19 00:22:00,
2013-12-18 18:42:00,55.0,44.0,30.18,SE,144,2.0,6.0,67,0.00,,,0.00,,2013-12-19 00:42:00,
2013-12-18 18:52:00,55.0,45.0,30.18,SE,144,2.0,3.0,68,0.00,,,0.00,,2013-12-19 00:52:00,
2013-12-18 19:11:00,55.0,45.0,30.18,SE,144,1.0,4.0,68,0.00,,,0.00,,2013-12-19 01:11:00,
2013-12-18 19:21:00,54.0,45.0,30.18,SE,144,1.0,3.0,71,0.00,,,0.00,,2013-12-19 01:21:00,
2013-12-18 19:42:00,52.0,44.0,30.18,SE,144,1.0,3.0,73,0.00,,,0.00,,2013-12-19 01:42:00,
2013-12-18 19:52:00,52.0,44.0,30.18,SE,144,4.0,5.0,75,0.00,,,0.00,,2013-12-19 01:52:00,
2013-12-18 20:11:00,54.0,44.0,30.18,SE,139,4.0,6.0,70,0.00,,,0.00,,2013-12-19 02:11:00,
2013-12-18 20:22:00,53.0,44.0,30.18,SE,141,4.0,5.0,71,0.00,,,0.00,,2013-12-19 02:22:00,
2013-12-18 21:12:00,51.0,43.0,30.17,SSE,161,4.0,6.0,75,0.00,,,0.00,,2013-12-19 03:12:00,
2013-12-18 21:21:00,51.0,43.0,30.17,SSE,161,4.0,8.0,75,0.00,,,0.00,,2013-12-19 03:21:00,
2013-12-18 21:43:00,51.0,43.0,30.17,SSE,165,5.0,7.0,74,0.00,,,0.00,,2013-12-19 03:43:00,
2013-12-18 21:53:00,51.0,43.0,30.17,SSE,164,4.0,7.0,74,0.00,,,0.00,,2013-12-19 03:53:00,
2013-12-18 22:12:00,50.0,43.0,30.17,South,174,5.0,7.0,76,0.00,,,0.00,,2013-12-19 04:12:00,
2013-12-18 22:23:00,50.0,43.0,30.17,SSE,163,6.0,10.0,76,0.00,,,0.00,,2013-12-19 04:23:00,
2013-12-18 22:43:00,51.0,43.0,30.16,SSE,150,8.0,12.0,75,0.00,,,0.00,,2013-12-19 04:43:00,
2013-12-18 22:53:00,50.0,43.0,30.16,SSE,152,7.0,11.0,76,0.00,,,0.00,,2013-12-19 04:53:00,
2013-12-18 23:12:00,50.0,43.0,30.16,South,169,5.0,9.0,77,0.00,,,0.00,,2013-12-19 05:12:00,
2013-12-18 23:22:00,50.0,43.0,30.16,South,171,6.0,10.0,76,0.00,,,0.00,,2013-12-19 05:22:00,
2013-12-18 23:42:00,49.0,42.0,30.16,SSE,162,5.0,8.0,78,0.00,,,0.00,,2013-12-19 05:42:00,
2013-12-18 23:52:00,49.0,42.0,30.16,South,171,4.0,10.0,78,0.00,,,0.00,,2013-12-19 05:52:00,